createdAt,value
2023-04-25T00:00:30.306Z,11.67
2023-04-25T00:03:00.450Z,12.23
2023-04-25T00:05:30.563Z,13.33
2023-04-25T00:08:00.138Z,12.80
2023-04-25T00:10:28.582Z,13.07
2023-04-25T00:12:56.983Z,12.17
2023-04-25T00:15:27.074Z,13.47
2023-04-25T00:17:55.660Z,15.70
2023-04-25T00:20:24.516Z,12.67
2023-04-25T00:22:53.798Z,13.47
2023-04-25T00:25:22.306Z,13.50
2023-04-25T00:27:50.745Z,13.60
2023-04-25T00:30:19.266Z,14.07
2023-04-25T00:32:49.964Z,15.80
2023-04-25T00:35:18.582Z,14.17
2023-04-25T00:37:47.031Z,13.60
2023-04-25T00:40:15.490Z,13.03
2023-04-25T00:42:44.461Z,13.30
2023-04-25T00:45:15.487Z,14.30
2023-04-25T00:47:43.977Z,12.67
2023-04-25T00:50:14.009Z,15.60
2023-04-25T00:52:43.517Z,13.87
2023-04-25T00:55:12.857Z,13.87
2023-04-25T00:57:41.503Z,13.57
2023-04-25T01:00:11.974Z,14.20
2023-04-25T01:02:40.599Z,13.57
2023-04-25T01:05:09.732Z,14.60
2023-04-25T01:07:39.506Z,14.10
2023-04-25T01:10:08.564Z,15.73
2023-04-25T01:12:37.280Z,15.17
2023-04-25T01:15:06.024Z,14.80
2023-04-25T01:17:34.625Z,14.70
2023-04-25T01:20:04.768Z,15.93
2023-04-25T01:22:34.665Z,16.67
2023-04-25T01:25:03.146Z,16.10
2023-04-25T01:27:32.256Z,15.07
2023-04-25T01:30:00.850Z,15.63
2023-04-25T01:32:29.477Z,17.30
2023-04-25T01:34:57.940Z,17.33
2023-04-25T01:37:26.320Z,16.53
2023-04-25T01:39:56.404Z,15.40
2023-04-25T01:42:24.846Z,15.67
2023-04-25T01:44:53.258Z,15.43
2023-04-25T01:47:21.837Z,17.07
2023-04-25T01:49:50.298Z,15.73
2023-04-25T01:52:18.753Z,14.57
2023-04-25T01:54:47.158Z,15.00
2023-04-25T01:57:17.006Z,15.63
2023-04-25T01:59:45.988Z,15.97
2023-04-25T02:02:14.469Z,14.93
2023-04-25T02:04:43.282Z,15.63
2023-04-25T02:07:11.819Z,17.87
2023-04-25T02:09:40.204Z,17.63
2023-04-25T02:12:08.864Z,16.57
2023-04-25T02:14:38.674Z,16.03
2023-04-25T02:17:07.244Z,16.07
2023-04-25T02:19:35.771Z,16.53
2023-04-25T02:22:04.194Z,16.17
2023-04-25T02:24:34.666Z,18.30
2023-04-25T02:27:03.896Z,18.53
2023-04-25T02:29:32.586Z,20.27
2023-04-25T02:32:02.386Z,18.33
2023-04-25T02:34:30.851Z,17.53
2023-04-25T02:36:59.300Z,16.80
2023-04-25T02:39:28.288Z,17.50
2023-04-25T02:41:56.740Z,17.90
2023-04-25T02:44:25.225Z,17.00
2023-04-25T02:46:53.687Z,17.93
2023-04-25T02:49:23.547Z,16.40
2023-04-25T02:51:51.958Z,17.27
2023-04-25T02:54:20.391Z,15.87
2023-04-25T02:56:48.847Z,16.53
2023-04-25T02:59:17.224Z,15.30
2023-04-25T03:01:46.338Z,18.43
2023-04-25T03:04:14.915Z,15.50
2023-04-25T03:06:44.755Z,14.30
2023-04-25T03:09:13.273Z,15.97
2023-04-25T03:11:41.763Z,14.50
2023-04-25T03:14:10.206Z,16.33
2023-04-25T03:16:38.678Z,15.77
2023-04-25T03:19:07.219Z,14.77
2023-04-25T03:21:36.250Z,16.47
2023-04-25T03:24:07.273Z,17.33
2023-04-25T03:26:35.723Z,17.10
2023-04-25T03:29:04.296Z,15.73
2023-04-25T03:31:33.534Z,16.63
2023-04-25T03:34:02.050Z,15.30
2023-04-25T03:36:30.484Z,15.73
2023-04-25T03:38:58.875Z,15.30
2023-04-25T03:41:29.158Z,15.47
2023-04-25T03:43:57.584Z,15.13
2023-04-25T03:46:26.120Z,14.10
2023-04-25T03:48:54.622Z,13.33
2023-04-25T03:51:23.051Z,15.13
2023-04-25T03:53:52.624Z,14.67
2023-04-25T03:56:21.495Z,13.60
2023-04-25T03:58:51.365Z,14.07
2023-04-25T04:01:19.790Z,13.90
2023-04-25T04:03:48.539Z,16.23
2023-04-25T04:06:17.026Z,14.10
2023-04-25T04:08:45.447Z,13.77
2023-04-25T04:11:13.866Z,13.97
2023-04-25T04:13:42.272Z,12.77
2023-04-25T04:16:12.381Z,12.10
2023-04-25T04:18:40.915Z,11.63
2023-04-25T04:21:09.427Z,13.57
2023-04-25T04:23:47.170Z,11.13
2023-04-25T04:26:16.399Z,10.33
2023-04-25T04:28:46.048Z,11.07
2023-04-25T04:31:17.982Z,10.77
2023-04-25T04:33:46.749Z,12.37
2023-04-25T04:36:15.212Z,11.33
2023-04-25T04:38:44.165Z,9.87
2023-04-25T04:41:12.614Z,9.87
2023-04-25T04:43:41.652Z,10.87
2023-04-25T04:46:11.576Z,9.60
2023-04-25T04:48:41.603Z,10.13
2023-04-25T04:51:10.035Z,8.90
2023-04-25T04:53:38.475Z,9.37
2023-04-25T04:56:07.316Z,9.47
2023-04-25T04:58:36.585Z,9.47
2023-04-25T05:01:05.067Z,8.57
2023-04-25T05:03:33.577Z,8.43
2023-04-25T05:06:03.468Z,9.10
2023-04-25T05:08:31.913Z,9.23
2023-04-25T05:11:00.308Z,7.63
2023-04-25T05:13:28.782Z,9.50
2023-04-25T05:15:57.208Z,7.20
2023-04-25T05:18:25.769Z,8.00
2023-04-25T05:20:54.467Z,8.50
2023-04-25T05:23:24.347Z,7.13
2023-04-25T05:25:52.774Z,8.40
2023-04-25T05:28:23.104Z,7.00
2023-04-25T05:30:51.932Z,7.07
2023-04-25T05:33:20.386Z,7.03
2023-04-25T05:35:49.083Z,6.43
2023-04-25T05:38:17.609Z,9.23
2023-04-25T05:40:47.443Z,5.87
2023-04-25T05:43:15.892Z,7.67
2023-04-25T05:45:44.364Z,7.47
2023-04-25T05:48:12.850Z,8.90
2023-04-25T05:50:41.265Z,6.17
2023-04-25T05:53:10.366Z,8.17
2023-04-25T05:55:38.763Z,5.93
2023-04-25T05:58:09.358Z,7.50
2023-04-25T06:00:37.813Z,6.30
2023-04-25T06:03:08.576Z,5.40
2023-04-25T06:05:37.190Z,7.90
2023-04-25T06:08:05.968Z,6.90
2023-04-25T06:10:34.385Z,7.03
2023-04-25T06:13:02.868Z,7.07
2023-04-25T06:15:33.533Z,5.90
2023-04-25T06:18:02.029Z,4.67
2023-04-25T06:20:30.729Z,5.40
2023-04-25T06:22:59.371Z,6.67
2023-04-25T06:25:27.761Z,6.93
2023-04-25T06:27:56.232Z,7.00
2023-04-25T06:30:26.711Z,6.60
2023-04-25T06:32:56.550Z,6.90
2023-04-25T06:35:24.954Z,5.60
2023-04-25T06:37:53.408Z,6.53
2023-04-25T06:40:21.827Z,6.77
2023-04-25T06:42:50.252Z,7.83
2023-04-25T06:45:18.694Z,8.70
2023-04-25T06:47:47.113Z,6.10
2023-04-25T06:50:16.956Z,6.17
2023-04-25T06:52:45.398Z,6.90
2023-04-25T06:55:14.058Z,5.07
2023-04-25T06:57:42.523Z,5.10
2023-04-25T07:00:12.238Z,6.50
2023-04-25T07:02:41.593Z,5.63
2023-04-25T07:05:10.322Z,7.30
2023-04-25T07:07:40.137Z,10.97
2023-04-25T07:10:08.889Z,5.83
2023-04-25T07:12:37.256Z,7.23
2023-04-25T07:15:07.241Z,7.40
2023-04-25T07:17:36.012Z,7.30
2023-04-25T07:20:04.806Z,7.00
2023-04-25T07:22:33.246Z,7.23
2023-04-25T07:25:03.842Z,6.47
2023-04-25T07:27:32.484Z,5.47
2023-04-25T07:30:01.016Z,5.90
2023-04-25T07:32:29.457Z,8.43
2023-04-25T07:34:57.924Z,7.77
2023-04-25T07:37:26.478Z,7.53
2023-04-25T07:39:54.921Z,6.90
2023-04-25T07:42:24.688Z,8.83
2023-04-25T07:44:53.138Z,6.03
2023-04-25T07:47:21.616Z,6.87
2023-04-25T07:49:50.104Z,9.07
2023-04-25T07:52:18.547Z,7.53
2023-04-25T07:54:47.051Z,9.00
2023-04-25T07:57:15.998Z,8.20
2023-04-25T07:59:45.818Z,8.70
2023-04-25T08:02:14.417Z,6.37
2023-04-25T08:04:43.136Z,6.30
2023-04-25T08:07:12.016Z,10.13
2023-04-25T08:09:40.435Z,6.37
2023-04-25T08:12:09.643Z,6.93
2023-04-25T08:14:38.352Z,7.37
2023-04-25T08:17:08.308Z,9.13
2023-04-25T08:19:36.815Z,9.17
2023-04-25T08:22:05.424Z,7.20
2023-04-25T08:24:33.856Z,7.83
2023-04-25T08:27:03.389Z,10.53
2023-04-25T08:29:32.023Z,8.03
2023-04-25T08:32:00.453Z,7.83
2023-04-25T08:34:30.310Z,7.87
2023-04-25T08:36:58.759Z,9.63
2023-04-25T08:39:27.256Z,8.37
2023-04-25T08:41:55.833Z,8.70
2023-04-25T08:44:25.105Z,8.17
2023-04-25T08:46:55.334Z,4.93
2023-04-25T08:49:23.956Z,5.90
2023-04-25T08:51:55.195Z,7.03
2023-04-25T08:54:35.185Z,4.67
2023-04-25T08:57:06.326Z,4.47
2023-04-25T08:59:36.204Z,7.10
2023-04-25T09:02:06.365Z,4.27
2023-04-25T09:04:35.045Z,5.07
2023-04-25T09:07:04.809Z,5.13
2023-04-25T09:09:33.321Z,6.30
2023-04-25T09:12:02.721Z,6.00
2023-04-25T09:14:31.264Z,6.00
2023-04-25T09:17:03.865Z,5.73
2023-04-25T09:19:40.158Z,6.27
2023-04-25T09:22:11.268Z,5.10
2023-04-25T09:24:41.663Z,5.13
2023-04-25T09:27:10.837Z,5.50
2023-04-25T09:29:40.440Z,5.40
2023-04-25T09:32:19.658Z,6.87
2023-04-25T09:34:52.723Z,4.80
2023-04-25T09:37:23.396Z,6.40
2023-04-25T09:39:54.163Z,5.20
2023-04-25T09:42:24.916Z,5.00
2023-04-25T09:44:54.696Z,4.80
2023-04-25T09:47:24.529Z,2.90
2023-04-25T09:49:53.565Z,4.37
2023-04-25T09:52:25.694Z,5.77
2023-04-25T09:54:54.831Z,3.30
2023-04-25T09:57:23.880Z,4.23
2023-04-25T09:59:53.098Z,3.93
2023-04-25T10:02:22.330Z,4.07
2023-04-25T10:04:53.616Z,5.57
2023-04-25T10:07:26.931Z,2.87
2023-04-25T10:09:58.027Z,4.33
2023-04-25T10:12:26.530Z,6.40
2023-04-25T10:14:55.190Z,9.63
2023-04-25T10:17:24.049Z,3.17
2023-04-25T10:19:52.867Z,4.77
2023-04-25T10:22:25.133Z,4.30
2023-04-25T10:24:53.856Z,5.40
2023-04-25T10:27:22.350Z,5.43
2023-04-25T10:30:03.423Z,2.40
2023-04-25T10:32:33.508Z,1.90
2023-04-25T10:35:12.902Z,2.00
2023-04-25T10:37:59.385Z,3.13
2023-04-25T10:40:27.988Z,2.67
2023-04-25T10:42:57.146Z,4.33
2023-04-25T10:45:25.617Z,4.07
2023-04-25T10:47:54.083Z,2.77
2023-04-25T10:50:22.508Z,4.10
2023-04-25T10:52:52.347Z,1.90
2023-04-25T10:55:20.791Z,2.67
2023-04-25T10:57:50.835Z,10.27
2023-04-25T11:00:20.637Z,3.73
2023-04-25T11:02:50.120Z,4.67
2023-04-25T11:05:23.427Z,2.93
2023-04-25T11:10:29.781Z,2.50
2023-04-25T11:12:58.705Z,4.17
2023-04-25T11:15:27.243Z,4.27
2023-04-25T11:17:55.851Z,4.80
2023-04-25T11:20:26.245Z,3.40
2023-04-25T11:22:56.502Z,1.90
2023-04-25T11:25:25.790Z,2.23
2023-04-25T11:27:54.413Z,4.90
2023-04-25T11:30:23.613Z,2.40
2023-04-25T11:32:53.168Z,6.10
2023-04-25T11:35:24.184Z,5.97
2023-04-25T11:37:52.887Z,4.27
2023-04-25T11:40:22.921Z,4.10
2023-04-25T11:42:51.974Z,3.73
2023-04-25T11:45:23.512Z,5.03
2023-04-25T11:47:52.176Z,2.50
2023-04-25T11:50:20.651Z,6.50
2023-04-25T11:52:49.977Z,4.00
2023-04-25T11:55:18.936Z,3.80
2023-04-25T11:57:51.192Z,2.60
2023-04-25T12:00:21.280Z,4.43
2023-04-25T12:02:50.240Z,3.40
2023-04-25T12:07:50.178Z,3.33
2023-04-25T12:10:19.121Z,2.20
2023-04-25T12:12:49.479Z,3.23
2023-04-25T12:15:20.461Z,8.10
2023-04-25T12:17:49.191Z,3.60
2023-04-25T12:20:18.791Z,3.23
2023-04-25T12:22:48.296Z,4.23
2023-04-25T12:25:16.990Z,2.43
2023-04-25T12:27:45.494Z,4.23
2023-04-25T12:30:15.605Z,4.40
2023-04-25T12:32:44.052Z,5.57
2023-04-25T12:35:12.516Z,4.77
2023-04-25T12:37:41.141Z,4.83
2023-04-25T12:40:10.985Z,4.80
2023-04-25T12:42:39.422Z,3.07
2023-04-25T12:45:08.285Z,2.90
2023-04-25T12:47:38.162Z,3.53
2023-04-25T12:50:07.145Z,2.33
2023-04-25T12:52:35.662Z,6.30
2023-04-25T12:55:04.079Z,5.03
2023-04-25T12:57:32.500Z,3.80
2023-04-25T13:00:01.546Z,2.27
2023-04-25T13:02:30.081Z,4.70
2023-04-25T13:04:59.954Z,4.43
2023-04-25T13:07:28.362Z,3.50
2023-04-25T13:09:56.785Z,2.10
2023-04-25T13:12:25.348Z,4.00
2023-04-25T13:14:53.799Z,5.33
2023-04-25T13:17:22.383Z,4.27
2023-04-25T13:19:50.868Z,4.37
2023-04-25T13:22:21.291Z,1.30
2023-04-25T13:24:49.739Z,1.50
2023-04-25T13:27:18.168Z,2.50
2023-04-25T13:29:46.663Z,2.43
2023-04-25T13:32:15.180Z,1.10
2023-04-25T13:34:44.057Z,1.30
2023-04-25T13:37:12.461Z,2.55
2023-04-25T13:42:29.481Z,1.00
2023-04-25T13:44:57.887Z,1.83
2023-04-25T13:47:26.448Z,1.77
2023-04-25T13:49:55.617Z,3.55
2023-04-25T13:52:25.103Z,1.63
2023-04-25T13:54:54.904Z,1.77
2023-04-25T13:57:23.391Z,2.60
2023-04-25T13:59:52.018Z,1.98
2023-04-25T14:02:20.462Z,2.10
2023-04-25T14:04:49.112Z,1.10
2023-04-25T14:07:18.909Z,1.17
2023-04-25T14:09:47.336Z,1.50
2023-04-25T14:12:18.954Z,1.52
2023-04-25T14:14:47.378Z,1.77
2023-04-25T14:17:15.809Z,0.95
2023-04-25T14:19:46.621Z,1.45
2023-04-25T14:22:15.356Z,1.90
2023-04-25T14:24:43.890Z,1.75
2023-04-25T14:27:12.901Z,1.88
2023-04-25T14:29:42.989Z,2.63
2023-04-25T14:32:11.859Z,5.25
2023-04-25T14:34:41.299Z,9.50
2023-04-25T14:37:09.724Z,9.52
2023-04-25T14:39:38.895Z,7.88
2023-04-25T14:42:07.675Z,7.28
2023-04-25T14:44:36.080Z,4.28
2023-04-25T14:47:06.022Z,4.10
2023-04-25T14:49:34.629Z,2.35
2023-04-25T14:52:03.273Z,3.00
2023-04-25T14:54:31.736Z,3.08
2023-04-25T14:57:00.199Z,1.75
2023-04-25T14:59:29.158Z,4.93
2023-04-25T15:01:59.721Z,5.22
2023-04-25T15:04:29.891Z,3.28
2023-04-25T15:06:58.871Z,1.52
2023-04-25T15:09:27.279Z,1.70
2023-04-25T15:11:55.737Z,1.98
2023-04-25T15:14:24.181Z,1.65
2023-04-25T15:16:52.714Z,3.03
2023-04-25T15:19:21.235Z,4.05
2023-04-25T15:21:51.035Z,1.50
2023-04-25T15:24:19.605Z,2.15
2023-04-25T15:26:48.127Z,1.42
2023-04-25T15:29:16.615Z,2.35
2023-04-25T15:31:45.225Z,0.70
2023-04-25T15:34:13.766Z,1.20
2023-04-25T15:36:42.192Z,1.95
2023-04-25T15:39:12.019Z,3.72
2023-04-25T15:41:40.519Z,1.92
2023-04-25T15:44:10.947Z,2.35
2023-04-25T15:46:39.649Z,1.88
2023-04-25T15:49:08.235Z,3.10
2023-04-25T15:51:36.814Z,2.33
2023-04-25T15:54:05.541Z,2.40
2023-04-25T15:56:35.376Z,0.98
2023-04-25T15:59:03.802Z,1.83
2023-04-25T16:01:32.437Z,1.83
2023-04-25T16:04:01.311Z,3.15
2023-04-25T16:06:30.308Z,0.80
2023-04-25T16:08:58.757Z,1.95
2023-04-25T16:11:27.172Z,1.35
2023-04-25T16:13:56.942Z,2.88
2023-04-25T16:16:26.445Z,1.45
2023-04-25T16:18:54.943Z,1.15
2023-04-25T16:21:23.359Z,2.15
2023-04-25T16:23:52.069Z,0.95
2023-04-25T16:26:20.661Z,1.85
2023-04-25T16:28:49.174Z,1.95
2023-04-25T16:31:19.193Z,1.45
2023-04-25T16:33:47.677Z,2.45
2023-04-25T16:36:16.064Z,1.63
2023-04-25T16:38:44.470Z,2.65
2023-04-25T16:41:13.583Z,2.53
2023-04-25T16:43:42.013Z,2.70
2023-04-25T16:46:10.678Z,2.15
2023-04-25T16:48:40.510Z,1.63
2023-04-25T16:51:08.998Z,3.58
2023-04-25T16:53:37.426Z,1.55
2023-04-25T16:56:07.920Z,2.42
2023-04-25T16:58:36.366Z,1.73
2023-04-25T17:01:05.224Z,3.75
2023-04-25T17:03:35.401Z,4.07
2023-04-25T17:06:05.562Z,3.00
2023-04-25T17:08:33.986Z,1.70
2023-04-25T17:11:02.905Z,2.58
2023-04-25T17:13:33.072Z,2.22
2023-04-25T17:16:02.075Z,2.67
2023-04-25T17:18:30.512Z,2.60
2023-04-25T17:20:58.969Z,3.87
2023-04-25T17:23:28.768Z,2.83
2023-04-25T17:25:57.174Z,4.00
2023-04-25T17:28:25.701Z,3.30
2023-04-25T17:30:54.810Z,1.70
2023-04-25T17:33:26.955Z,3.17
2023-04-25T17:35:55.544Z,2.33
2023-04-25T17:38:23.961Z,2.63
2023-04-25T17:40:53.761Z,3.20
2023-04-25T17:43:22.224Z,4.20
2023-04-25T17:45:50.643Z,2.17
2023-04-25T17:48:19.144Z,2.27
2023-04-25T17:50:47.575Z,2.97
2023-04-25T17:53:16.215Z,5.00
2023-04-25T17:55:44.757Z,2.93
2023-04-25T17:58:14.993Z,3.93
2023-04-25T18:00:43.795Z,2.93
2023-04-25T18:03:12.957Z,4.57
2023-04-25T18:05:41.455Z,4.90
2023-04-25T18:08:09.954Z,7.97
2023-04-25T18:10:39.004Z,9.17
2023-04-25T18:13:09.133Z,9.17
2023-04-25T18:15:38.992Z,11.97
2023-04-25T18:18:15.120Z,10.97
2023-04-25T18:20:45.283Z,9.03
2023-04-25T18:23:14.330Z,9.80
2023-04-25T18:25:42.948Z,10.07
2023-04-25T18:28:11.458Z,6.93
2023-04-25T18:30:43.373Z,6.20
2023-04-25T18:33:11.870Z,6.93
2023-04-25T18:35:45.104Z,6.43
2023-04-25T18:38:31.764Z,4.10
2023-04-25T18:41:21.056Z,5.17
2023-04-25T18:43:52.899Z,4.13
2023-04-25T18:46:23.500Z,4.07
2023-04-25T18:48:53.503Z,4.13
2023-04-25T18:51:23.887Z,3.53
2023-04-25T18:53:53.142Z,3.87
2023-04-25T18:56:22.986Z,5.20
2023-04-25T18:58:52.286Z,3.70
2023-04-25T19:01:21.043Z,3.60
2023-04-25T19:03:56.197Z,3.40
2023-04-25T19:06:27.395Z,2.70
2023-04-25T19:08:56.485Z,2.87
2023-04-25T19:11:25.072Z,3.43
2023-04-25T19:13:55.558Z,2.77
2023-04-25T19:16:26.290Z,3.17
2023-04-25T19:18:56.889Z,2.67
2023-04-25T19:21:25.400Z,2.23
2023-04-25T19:23:54.764Z,3.87
2023-04-25T19:26:24.104Z,2.70
2023-04-25T19:29:04.949Z,2.53
2023-04-25T19:31:33.698Z,4.37
2023-04-25T19:34:03.750Z,4.77
2023-04-25T19:36:32.313Z,5.73
2023-04-25T19:39:04.582Z,6.30
2023-04-25T19:41:33.776Z,6.07
2023-04-25T19:44:02.426Z,6.93
2023-04-25T19:46:31.139Z,6.27
2023-04-25T19:48:59.642Z,6.57
2023-04-25T19:51:29.420Z,4.67
2023-04-25T19:53:57.996Z,5.77
2023-04-25T19:56:26.543Z,5.90
2023-04-25T19:58:56.242Z,4.73
2023-04-25T20:01:24.759Z,5.23
2023-04-25T20:03:53.581Z,5.03
2023-04-25T20:06:22.247Z,4.57
2023-04-25T20:08:54.963Z,4.00
2023-04-25T20:11:23.660Z,4.10
2023-04-25T20:13:52.333Z,3.83
2023-04-25T20:16:22.030Z,4.10
2023-04-25T20:18:53.099Z,3.13
2023-04-25T20:21:21.889Z,3.87
2023-04-25T20:23:52.068Z,5.87
2023-04-25T20:26:22.687Z,4.77
2023-04-25T20:28:52.000Z,4.03
2023-04-25T20:31:21.005Z,3.63
2023-04-25T20:33:49.526Z,4.37
2023-04-25T20:36:19.577Z,3.23
2023-04-25T20:38:48.026Z,3.23
2023-04-25T20:41:17.871Z,3.83
2023-04-25T20:43:47.259Z,2.80
2023-04-25T20:46:17.850Z,1.90
2023-04-25T20:48:46.422Z,2.37
2023-04-25T20:51:14.836Z,2.20
2023-04-25T20:53:43.331Z,2.63
2023-04-25T20:56:12.927Z,2.13
2023-04-25T20:58:42.785Z,3.20
2023-04-25T21:01:11.549Z,2.70
2023-04-25T21:03:40.292Z,3.87
2023-04-25T21:06:09.149Z,3.80
2023-04-25T21:08:37.636Z,4.17
2023-04-25T21:11:06.067Z,2.43
2023-04-25T21:13:34.625Z,2.80
2023-04-25T21:16:04.949Z,3.37
2023-04-25T21:18:34.813Z,2.73
2023-04-25T21:21:04.303Z,3.10
2023-04-25T21:23:33.348Z,2.80
2023-04-25T21:26:01.772Z,4.10
2023-04-25T21:28:30.408Z,5.33
2023-04-25T21:30:59.394Z,3.63
2023-04-25T21:33:29.284Z,3.50
2023-04-25T21:35:57.713Z,3.87
2023-04-25T21:38:26.122Z,5.60
2023-04-25T21:40:54.679Z,4.07
2023-04-25T21:43:23.117Z,4.40
2023-04-25T21:46:11.114Z,4.40
2023-04-25T21:48:41.292Z,5.30
2023-04-25T21:51:09.783Z,5.00
2023-04-25T21:53:38.236Z,4.17
2023-04-25T21:56:06.807Z,3.93
2023-04-25T21:58:35.286Z,4.73
2023-04-25T22:01:04.799Z,4.17
2023-04-25T22:03:34.251Z,4.20
2023-04-25T22:06:04.958Z,3.37
2023-04-25T22:08:33.680Z,3.93
2023-04-25T22:11:02.971Z,4.43
2023-04-25T22:13:33.581Z,3.60
2023-04-25T22:16:02.085Z,3.90
2023-04-25T22:18:30.555Z,5.33
2023-04-25T22:20:59.494Z,4.10
2023-04-25T22:23:29.409Z,5.73
2023-04-25T22:25:58.089Z,3.53
2023-04-25T22:28:26.804Z,3.80
2023-04-25T22:30:55.457Z,3.80
2023-04-25T22:33:23.859Z,5.87
2023-04-25T22:35:52.268Z,6.50
2023-04-25T22:38:20.864Z,4.57
2023-04-25T22:40:50.634Z,6.10
2023-04-25T22:43:19.055Z,5.53
2023-04-25T22:45:47.541Z,5.33
2023-04-25T22:48:16.009Z,4.70
2023-04-25T22:50:44.840Z,4.20
2023-04-25T22:53:13.317Z,4.90
2023-04-25T22:55:41.746Z,4.47
2023-04-25T22:58:11.597Z,4.27
2023-04-25T23:00:40.418Z,4.03
2023-04-25T23:03:09.245Z,5.10
2023-04-25T23:05:38.378Z,5.13
2023-04-25T23:08:06.823Z,4.47
2023-04-25T23:10:35.239Z,4.70
2023-04-25T23:13:03.975Z,4.57
2023-04-25T23:15:34.858Z,5.87
2023-04-25T23:18:03.409Z,5.10
2023-04-25T23:20:32.393Z,4.97
2023-04-25T23:23:00.816Z,5.93
2023-04-25T23:25:29.351Z,7.17
2023-04-25T23:27:58.072Z,5.20
2023-04-25T23:30:26.917Z,5.40
2023-04-25T23:32:56.844Z,6.70
2023-04-25T23:35:25.374Z,5.87
2023-04-25T23:37:53.832Z,5.67
2023-04-25T23:40:22.789Z,5.70
2023-04-25T23:42:51.243Z,6.70
2023-04-25T23:45:20.835Z,5.90
2023-04-25T23:47:49.297Z,6.90
2023-04-25T23:50:19.157Z,6.47
2023-04-25T23:52:47.632Z,7.27
2023-04-25T23:55:16.076Z,6.67
2023-04-25T23:57:44.731Z,7.47
